Time;durP1;ratioP1;P1;durP2;ratioP2;P2;SDS_P1;SDS_P2;PMS_P1;PMS_P2;Temp;Humidity;BMP_temperature;BMP_pressure;BME280_temperature;BME280_humidity;BME280_pressure;Samples;Min_cycle;Max_cycle;Signal;HPM_P1;HPM_P2
2023/06/25 00:02:12;;;;;;;1.98;1.58;;;17.60;99.90;;;;;;5009527;28;20048;-67
2023/06/25 00:04:38;;;;;;;1.27;1.17;;;17.50;99.90;;;;;;4991772;28;20050;-67
2023/06/25 00:07:05;;;;;;;1.60;1.50;;;17.50;99.90;;;;;;5010224;28;20130;-67
2023/06/25 00:09:32;;;;;;;1.65;1.55;;;17.50;99.90;;;;;;5010143;28;20041;-67
2023/06/25 00:11:58;;;;;;;2.42;1.58;;;17.50;99.90;;;;;;4975403;28;20054;-67
2023/06/25 00:14:33;;;;;;;1.63;1.50;;;17.40;99.90;;;;;;5010231;28;20061;-67
2023/06/25 00:17:00;;;;;;;2.10;1.55;;;17.40;99.90;;;;;;5008045;28;20049;-67
2023/06/25 00:19:26;;;;;;;1.52;1.42;;;17.40;99.90;;;;;;5009679;28;20041;-67
2023/06/25 00:21:53;;;;;;;5.85;1.55;;;17.40;99.90;;;;;;5009294;28;20400;-67
2023/06/25 00:24:19;;;;;;;2.05;1.80;;;17.40;99.90;;;;;;5010081;28;20057;-67
2023/06/25 00:26:46;;;;;;;2.63;1.48;;;17.40;99.90;;;;;;4989481;28;20106;-67
2023/06/25 00:29:13;;;;;;;1.80;1.50;;;17.30;99.90;;;;;;5000041;28;20054;-67
2023/06/25 00:31:41;;;;;;;1.55;1.40;;;17.30;99.90;;;;;;4991944;28;20049;-67
2023/06/25 00:34:07;;;;;;;2.83;1.58;;;17.30;99.90;;;;;;4987915;28;20497;-67
2023/06/25 00:36:36;;;;;;;3.80;1.60;;;17.30;99.90;;;;;;5005129;28;20053;-67
2023/06/25 00:39:04;;;;;;;2.60;1.48;;;17.30;99.90;;;;;;5009263;28;20049;-67
2023/06/25 00:41:33;;;;;;;2.75;1.65;;;17.30;99.90;;;;;;5008971;28;20087;-67
2023/06/25 00:44:03;;;;;;;2.30;1.55;;;17.30;99.90;;;;;;4991082;28;20058;-67
2023/06/25 00:46:30;;;;;;;1.95;1.75;;;17.20;99.90;;;;;;4972334;28;20089;-67
2023/06/25 00:48:56;;;;;;;3.33;1.83;;;17.20;99.90;;;;;;4989958;28;20404;-67
2023/06/25 00:51:27;;;;;;;2.17;1.60;;;17.20;99.90;;;;;;4988731;28;20076;-67
2023/06/25 00:53:54;;;;;;;2.25;1.65;;;17.20;99.90;;;;;;4990036;28;20345;-67
2023/06/25 00:56:27;;;;;;;1.88;1.65;;;17.10;99.90;;;;;;4989254;28;20061;-67
2023/06/25 00:59:01;;;;;;;2.70;1.65;;;17.10;99.90;;;;;;4971769;28;20050;-67
2023/06/25 01:01:49;;;;;;;2.75;2.10;;;17.10;99.90;;;;;;4957435;28;20724;-67
2023/06/25 01:04:25;;;;;;;2.58;2.00;;;17.10;99.90;;;;;;4968100;28;20058;-67
2023/06/25 01:06:56;;;;;;;5.82;2.00;;;17.10;99.90;;;;;;4982675;28;20421;-67
2023/06/25 01:09:25;;;;;;;2.42;1.88;;;17.10;99.90;;;;;;4989099;28;20117;-67
2023/06/25 01:12:09;;;;;;;2.88;2.22;;;17.10;99.90;;;;;;4989059;28;20035;-67
2023/06/25 01:14:36;;;;;;;3.58;2.35;;;17.00;99.90;;;;;;4990195;28;20050;-67
2023/06/25 01:17:05;;;;;;;3.47;2.75;;;17.00;99.90;;;;;;4987905;28;20064;-67
2023/06/25 01:19:31;;;;;;;4.55;2.92;;;16.90;99.90;;;;;;4989740;28;20117;-67
2023/06/25 01:21:59;;;;;;;4.53;3.65;;;16.90;99.90;;;;;;4987438;28;20560;-67
2023/06/25 01:24:27;;;;;;;5.13;3.80;;;17.00;99.90;;;;;;4989739;28;20305;-67
2023/06/25 01:26:59;;;;;;;6.60;4.38;;;17.00;99.90;;;;;;4988066;28;20050;-67
2023/06/25 01:29:27;;;;;;;4.63;4.22;;;17.00;99.90;;;;;;4971048;28;20101;-66
2023/06/25 01:31:53;;;;;;;6.07;5.25;;;17.00;99.90;;;;;;4971744;28;20046;-67
2023/06/25 01:34:21;;;;;;;7.88;5.00;;;17.10;99.90;;;;;;4987890;28;20121;-67
2023/06/25 01:36:52;;;;;;;6.20;4.13;;;17.10;99.90;;;;;;4988982;28;20043;-67
2023/06/25 01:39:19;;;;;;;6.70;5.97;;;17.10;99.90;;;;;;4970944;28;20085;-67
2023/06/25 01:41:47;;;;;;;7.50;5.78;;;17.10;99.90;;;;;;4990011;28;20448;-67
2023/06/25 01:44:19;;;;;;;7.85;5.50;;;17.10;99.90;;;;;;5008362;28;20141;-66
2023/06/25 01:46:45;;;;;;;9.85;5.00;;;17.10;99.90;;;;;;5007719;28;20041;-67
2023/06/25 01:49:11;;;;;;;6.90;4.80;;;17.10;99.90;;;;;;5008994;28;20475;-66
2023/06/25 01:51:38;;;;;;;4.97;4.57;;;17.20;99.90;;;;;;5007381;28;20148;-67
2023/06/25 01:54:04;;;;;;;5.75;4.63;;;17.20;99.90;;;;;;5008570;28;20092;-67
2023/06/25 01:56:31;;;;;;;5.28;4.82;;;17.20;99.90;;;;;;5006830;28;20037;-67
2023/06/25 01:58:57;;;;;;;7.07;4.47;;;17.20;99.90;;;;;;5008392;28;20411;-67
2023/06/25 02:01:25;;;;;;;5.65;4.57;;;17.20;99.90;;;;;;4990560;28;20121;-66
2023/06/25 02:03:51;;;;;;;6.03;4.72;;;17.20;99.90;;;;;;5007440;28;20057;-67
2023/06/25 02:06:18;;;;;;;9.25;5.47;;;17.20;99.90;;;;;;5008555;28;20050;-66
2023/06/25 02:08:44;;;;;;;5.45;4.65;;;17.20;99.90;;;;;;4989088;28;20064;-67
2023/06/25 02:11:10;;;;;;;6.70;5.22;;;17.10;99.90;;;;;;5008617;28;20392;-66
2023/06/25 02:13:37;;;;;;;5.20;4.65;;;17.10;99.90;;;;;;5006915;28;20101;-67
2023/06/25 02:16:03;;;;;;;6.30;4.85;;;17.10;99.90;;;;;;4974555;28;20042;-67
2023/06/25 02:18:32;;;;;;;8.15;4.85;;;17.00;99.90;;;;;;5007160;28;20049;-66
2023/06/25 02:20:59;;;;;;;4.32;3.92;;;17.00;99.90;;;;;;5006937;28;20050;-67
2023/06/25 02:23:26;;;;;;;4.38;3.35;;;17.00;99.90;;;;;;5008404;28;20054;-67
2023/06/25 02:25:52;;;;;;;4.80;3.20;;;16.90;99.90;;;;;;5006698;28;20384;-67
2023/06/25 02:28:19;;;;;;;3.42;3.13;;;16.80;99.90;;;;;;5007827;28;20077;-67
2023/06/25 02:30:45;;;;;;;4.90;3.13;;;16.80;99.90;;;;;;5006782;28;20049;-67
2023/06/25 02:33:12;;;;;;;4.60;2.90;;;16.80;99.90;;;;;;5007258;28;20411;-67
2023/06/25 02:35:41;;;;;;;2.92;2.60;;;16.70;99.90;;;;;;5006748;28;20106;-67
2023/06/25 02:38:07;;;;;;;4.18;3.20;;;16.70;99.90;;;;;;5007072;28;20042;-67
2023/06/25 02:40:33;;;;;;;3.40;3.10;;;16.60;99.90;;;;;;5007139;28;20050;-66
2023/06/25 02:43:00;;;;;;;6.32;3.60;;;16.60;99.90;;;;;;5006052;28;20057;-67
2023/06/25 02:45:27;;;;;;;6.32;4.18;;;16.60;99.90;;;;;;5008177;28;20085;-67
2023/06/25 02:47:53;;;;;;;5.22;4.10;;;16.50;99.90;;;;;;5006222;28;20042;-67
2023/06/25 02:50:19;;;;;;;4.50;3.55;;;16.50;99.90;;;;;;4987421;28;20065;-67
2023/06/25 02:52:46;;;;;;;6.90;3.15;;;16.50;99.90;;;;;;4980409;28;20049;-67
2023/06/25 02:55:12;;;;;;;6.05;3.80;;;16.50;99.90;;;;;;5007436;28;20046;-67
2023/06/25 02:57:40;;;;;;;5.63;3.90;;;16.50;99.90;;;;;;4989615;28;20396;-67
2023/06/25 03:00:07;;;;;;;6.32;3.63;;;16.50;99.90;;;;;;4987827;28;20420;-67
2023/06/25 03:02:33;;;;;;;4.90;3.72;;;16.50;99.90;;;;;;5008016;28;20069;-67
2023/06/25 03:05:00;;;;;;;4.35;3.75;;;16.50;99.90;;;;;;5005741;28;20056;-67
2023/06/25 03:07:26;;;;;;;5.38;4.22;;;16.50;99.90;;;;;;5007897;28;20424;-68
2023/06/25 03:09:52;;;;;;;7.53;4.88;;;16.50;99.90;;;;;;5005421;28;20575;-68
2023/06/25 03:12:19;;;;;;;10.18;5.22;;;16.50;99.90;;;;;;4989976;28;20053;-67
2023/06/25 03:14:45;;;;;;;7.90;5.63;;;16.60;99.90;;;;;;5002369;28;20479;-67
2023/06/25 03:17:12;;;;;;;7.40;5.55;;;16.60;99.90;;;;;;5007106;28;20085;-68
2023/06/25 03:19:39;;;;;;;7.57;5.72;;;16.70;99.90;;;;;;5007270;28;20329;-67
2023/06/25 03:22:06;;;;;;;14.20;6.47;;;16.70;99.90;;;;;;5005968;28;20053;-67
2023/06/25 03:24:32;;;;;;;8.40;6.38;;;16.70;99.90;;;;;;4989494;28;20129;-67
2023/06/25 03:26:59;;;;;;;10.75;7.00;;;16.70;99.90;;;;;;4988211;28;20042;-67
2023/06/25 03:29:25;;;;;;;8.85;6.18;;;16.70;99.90;;;;;;5007332;28;20050;-67
2023/06/25 03:31:53;;;;;;;8.57;5.93;;;16.70;99.90;;;;;;5005611;28;20046;-67
2023/06/25 03:34:19;;;;;;;9.00;6.00;;;16.70;99.90;;;;;;5007166;28;20643;-67
2023/06/25 03:36:46;;;;;;;8.35;5.38;;;16.70;99.90;;;;;;5007534;28;20377;-67
2023/06/25 03:39:12;;;;;;;6.60;4.47;;;16.60;99.90;;;;;;5006260;28;20073;-67
2023/06/25 03:41:39;;;;;;;6.15;5.10;;;16.60;99.90;;;;;;5007271;28;20042;-68
2023/06/25 03:44:05;;;;;;;6.97;5.05;;;16.60;99.90;;;;;;4984528;28;20551;-67
2023/06/25 03:46:32;;;;;;;7.22;5.75;;;16.50;99.90;;;;;;4984799;28;20074;-67
2023/06/25 03:48:59;;;;;;;6.82;5.28;;;16.60;99.90;;;;;;5006062;28;20128;-67
2023/06/25 03:51:26;;;;;;;7.70;5.07;;;16.60;99.90;;;;;;5008799;28;20046;-67
2023/06/25 03:53:52;;;;;;;7.88;4.85;;;16.60;99.90;;;;;;5009967;28;20038;-67
2023/06/25 03:56:19;;;;;;;6.90;5.15;;;16.50;99.90;;;;;;5009908;28;20868;-67
2023/06/25 03:58:45;;;;;;;6.63;5.40;;;16.60;99.90;;;;;;5011251;28;20049;-66
2023/06/25 04:01:11;;;;;;;10.27;5.07;;;16.60;99.90;;;;;;5009368;28;20411;-67
2023/06/25 04:03:38;;;;;;;6.97;5.32;;;16.60;99.90;;;;;;5010379;28;20046;-67
2023/06/25 04:06:04;;;;;;;6.75;5.55;;;16.70;99.90;;;;;;5008954;28;20404;-67
2023/06/25 04:08:31;;;;;;;6.63;4.97;;;16.70;99.90;;;;;;5010856;28;20496;-67
2023/06/25 04:10:57;;;;;;;7.38;5.22;;;16.70;99.90;;;;;;5003761;28;20046;-67
2023/06/25 04:13:23;;;;;;;7.35;4.80;;;16.80;99.90;;;;;;5010025;28;20140;-67
2023/06/25 04:15:50;;;;;;;8.90;5.10;;;16.70;99.90;;;;;;4991153;28;20077;-67
2023/06/25 04:18:16;;;;;;;9.88;5.30;;;16.80;99.90;;;;;;4991246;28;20034;-67
2023/06/25 04:20:42;;;;;;;6.25;4.20;;;16.80;99.90;;;;;;5010535;28;20056;-67
2023/06/25 04:23:09;;;;;;;6.50;4.50;;;16.90;99.90;;;;;;4971501;28;20136;-67
2023/06/25 04:25:36;;;;;;;5.85;3.97;;;16.90;99.90;;;;;;5002701;28;20050;-67
2023/06/25 04:28:04;;;;;;;5.32;4.20;;;17.00;99.90;;;;;;5008945;28;20038;-68
2023/06/25 04:30:30;;;;;;;8.82;4.25;;;17.00;99.90;;;;;;5010605;28;20046;-67
2023/06/25 04:32:57;;;;;;;6.82;4.70;;;17.10;99.90;;;;;;5009498;28;20049;-67
2023/06/25 04:35:23;;;;;;;8.43;5.20;;;17.20;99.90;;;;;;5009125;28;20034;-67
2023/06/25 04:37:49;;;;;;;6.30;4.40;;;17.30;99.90;;;;;;4989604;28;20401;-67
2023/06/25 04:40:16;;;;;;;6.20;5.00;;;17.40;99.90;;;;;;5008370;28;20050;-67
2023/06/25 04:42:42;;;;;;;6.53;4.53;;;17.60;99.90;;;;;;5009483;28;20060;-67
2023/06/25 04:45:09;;;;;;;5.57;4.82;;;17.60;99.90;;;;;;5008096;28;20481;-67
2023/06/25 04:47:36;;;;;;;8.35;5.53;;;17.80;99.90;;;;;;5010164;28;20053;-67
2023/06/25 04:50:03;;;;;;;6.78;4.70;;;17.80;99.90;;;;;;4991476;28;20057;-67
2023/06/25 04:52:29;;;;;;;6.70;5.47;;;18.00;99.90;;;;;;4988145;28;20045;-68
2023/06/25 04:54:55;;;;;;;6.05;4.85;;;18.10;99.90;;;;;;5004566;28;20141;-67
2023/06/25 04:57:22;;;;;;;5.90;5.30;;;18.20;99.90;;;;;;5007959;28;20504;-68
2023/06/25 04:59:48;;;;;;;5.20;4.70;;;18.30;99.90;;;;;;5009956;28;20053;-68
2023/06/25 05:02:15;;;;;;;7.32;5.13;;;18.40;99.90;;;;;;4989736;28;20046;-67
2023/06/25 05:04:41;;;;;;;7.05;4.88;;;18.50;99.90;;;;;;5009872;28;20049;-67
2023/06/25 05:07:08;;;;;;;7.38;5.25;;;18.60;99.90;;;;;;5008446;28;20496;-67
2023/06/25 05:09:35;;;;;;;8.07;5.53;;;18.70;99.90;;;;;;5003688;28;20089;-67
2023/06/25 05:12:02;;;;;;;9.27;6.03;;;18.80;99.90;;;;;;5000350;28;20049;-67
2023/06/25 05:14:30;;;;;;;6.57;5.10;;;19.00;99.90;;;;;;5007811;28;20540;-67
2023/06/25 05:16:56;;;;;;;7.97;5.63;;;19.00;99.90;;;;;;5009664;28;20177;-68
2023/06/25 05:19:23;;;;;;;7.15;5.25;;;19.20;99.90;;;;;;5007387;28;20112;-68
2023/06/25 05:21:49;;;;;;;7.70;5.68;;;19.30;99.90;;;;;;4989127;28;20125;-67
2023/06/25 05:24:16;;;;;;;5.72;4.80;;;19.30;99.90;;;;;;5002213;28;20466;-68
2023/06/25 05:26:42;;;;;;;8.88;5.35;;;19.30;99.90;;;;;;5009352;28;20096;-68
2023/06/25 05:29:09;;;;;;;6.13;4.22;;;19.40;99.90;;;;;;5008851;28;20046;-68
2023/06/25 05:31:35;;;;;;;4.93;4.00;;;19.40;99.90;;;;;;5007756;28;20060;-69
2023/06/25 05:34:02;;;;;;;4.07;3.67;;;19.40;99.90;;;;;;5008948;28;20073;-67
2023/06/25 05:36:29;;;;;;;5.18;3.92;;;19.50;99.90;;;;;;5007348;28;20045;-68
2023/06/25 05:38:55;;;;;;;6.80;4.00;;;19.50;99.90;;;;;;4991807;28;20060;-68
2023/06/25 05:41:21;;;;;;;5.18;4.05;;;19.60;99.90;;;;;;4989884;28;20041;-68
2023/06/25 05:43:49;;;;;;;4.43;4.03;;;19.70;99.90;;;;;;5008782;28;20076;-68
2023/06/25 05:46:16;;;;;;;5.53;4.35;;;19.80;99.90;;;;;;5007632;28;20053;-68
2023/06/25 05:48:43;;;;;;;4.60;4.20;;;19.80;99.90;;;;;;4987526;28;20092;-68
2023/06/25 05:51:10;;;;;;;6.18;4.68;;;19.80;99.90;;;;;;4984471;28;20053;-68
2023/06/25 05:53:44;;;;;;;5.75;3.85;;;19.90;99.90;;;;;;5006787;28;20054;-68
2023/06/25 05:56:10;;;;;;;4.88;4.32;;;19.90;99.90;;;;;;5008714;28;20133;-68
2023/06/25 05:58:37;;;;;;;7.90;4.60;;;20.00;99.90;;;;;;5006617;28;20050;-68
2023/06/25 06:01:04;;;;;;;4.10;3.70;;;20.00;99.90;;;;;;5008813;28;20467;-69
2023/06/25 06:03:30;;;;;;;5.68;4.22;;;20.10;99.00;;;;;;4972296;28;20050;-68
2023/06/25 06:05:58;;;;;;;5.50;3.70;;;20.20;98.70;;;;;;4987493;28;20833;-69
2023/06/25 06:08:24;;;;;;;5.00;3.53;;;20.30;96.70;;;;;;4981944;28;20497;-68
2023/06/25 06:10:51;;;;;;;5.13;3.88;;;20.40;96.40;;;;;;4976001;28;20492;-68
2023/06/25 06:13:18;;;;;;;4.00;3.58;;;20.40;96.00;;;;;;4988088;28;20050;-68
2023/06/25 06:15:44;;;;;;;5.32;4.25;;;20.50;97.40;;;;;;4982426;28;20061;-68
2023/06/25 06:18:10;;;;;;;4.10;3.65;;;20.50;97.80;;;;;;5008413;28;20038;-68
2023/06/25 06:20:37;;;;;;;6.43;3.78;;;20.60;98.50;;;;;;4986548;28;20046;-68
2023/06/25 06:23:03;;;;;;;6.20;4.18;;;20.60;96.90;;;;;;4989366;28;20041;-68
2023/06/25 06:25:30;;;;;;;4.07;3.67;;;20.60;95.50;;;;;;4974328;28;20124;-68
2023/06/25 06:27:56;;;;;;;4.95;4.43;;;20.70;94.80;;;;;;5007069;28;20050;-68
2023/06/25 06:30:23;;;;;;;5.53;4.70;;;20.70;94.50;;;;;;4987333;28;20130;-68
2023/06/25 06:32:49;;;;;;;7.07;5.10;;;20.80;95.20;;;;;;5003009;28;20053;-69
2023/06/25 06:35:15;;;;;;;7.75;4.93;;;20.90;96.20;;;;;;4987792;28;20046;-69
2023/06/25 06:37:42;;;;;;;8.68;5.30;;;20.90;96.20;;;;;;5004259;28;20058;-67
2023/06/25 06:40:08;;;;;;;8.80;5.22;;;21.00;96.10;;;;;;4990804;28;20046;-69
2023/06/25 06:42:35;;;;;;;9.48;6.13;;;21.00;94.00;;;;;;4985773;28;20067;-69
2023/06/25 06:45:03;;;;;;;7.78;5.50;;;21.00;95.50;;;;;;4986763;28;20078;-69
2023/06/25 06:47:29;;;;;;;10.00;5.72;;;21.10;96.20;;;;;;5007715;28;20157;-69
2023/06/25 06:49:56;;;;;;;5.60;4.72;;;21.20;95.40;;;;;;4988680;28;20124;-69
2023/06/25 06:52:25;;;;;;;6.07;5.43;;;21.30;93.00;;;;;;4991672;28;20416;-69
2023/06/25 06:54:51;;;;;;;10.17;6.17;;;21.30;95.60;;;;;;5011844;28;20049;-69
2023/06/25 06:57:18;;;;;;;11.27;6.72;;;21.40;94.50;;;;;;4987457;28;20073;-68
2023/06/25 06:59:45;;;;;;;13.65;6.43;;;21.50;94.40;;;;;;4999406;28;20540;-69
2023/06/25 07:02:12;;;;;;;8.55;5.55;;;21.60;92.90;;;;;;5006913;28;20038;-68
2023/06/25 07:04:39;;;;;;;6.60;5.43;;;21.60;93.70;;;;;;5007536;28;20050;-69
2023/06/25 07:07:06;;;;;;;8.52;5.43;;;21.70;93.90;;;;;;4972516;28;20042;-70
2023/06/25 07:09:32;;;;;;;7.50;5.93;;;21.80;94.70;;;;;;4984566;28;20120;-68
2023/06/25 07:11:59;;;;;;;7.82;6.45;;;21.90;93.40;;;;;;4987079;28;20058;-69
2023/06/25 07:14:25;;;;;;;6.75;5.22;;;22.10;95.50;;;;;;5007652;28;20503;-69
2023/06/25 07:16:52;;;;;;;9.63;5.68;;;22.20;93.50;;;;;;5006507;28;20081;-69
2023/06/25 07:19:18;;;;;;;8.63;5.60;;;22.30;91.80;;;;;;5006796;28;20591;-69
2023/06/25 07:21:45;;;;;;;10.75;6.38;;;22.40;90.30;;;;;;5007218;28;20112;-68
2023/06/25 07:24:12;;;;;;;12.05;5.47;;;22.50;87.00;;;;;;5006097;28;20476;-69
2023/06/25 07:26:38;;;;;;;8.85;5.55;;;22.60;85.90;;;;;;4992121;28;20115;-69
2023/06/25 07:29:05;;;;;;;5.90;5.30;;;22.80;91.80;;;;;;5009197;28;20057;-69
2023/06/25 07:31:31;;;;;;;5.70;4.80;;;22.90;88.10;;;;;;4993482;28;20050;-68
2023/06/25 07:33:57;;;;;;;11.88;6.28;;;23.10;90.70;;;;;;5009922;28;20124;-68
2023/06/25 07:36:24;;;;;;;8.02;5.47;;;23.30;78.00;;;;;;4993685;28;20489;-69
2023/06/25 07:38:50;;;;;;;6.90;5.47;;;23.60;73.70;;;;;;4989265;28;20284;-69
2023/06/25 07:41:17;;;;;;;7.43;5.50;;;23.80;66.70;;;;;;4988090;28;20053;-68
2023/06/25 07:43:43;;;;;;;8.27;5.88;;;24.10;64.10;;;;;;4977599;28;20066;-70
2023/06/25 07:46:10;;;;;;;9.20;6.22;;;24.30;54.70;;;;;;4979855;28;20054;-69
2023/06/25 07:48:36;;;;;;;8.82;6.07;;;24.50;33.80;;;;;;4954372;28;20245;-69
2023/06/25 07:51:03;;;;;;;7.40;5.57;;;24.70;43.90;;;;;;4968776;28;20054;-69
2023/06/25 07:53:29;;;;;;;7.03;6.13;;;25.00;28.70;;;;;;4989441;28;20042;-68
2023/06/25 07:55:56;;;;;;;7.13;5.90;;;25.30;28.60;;;;;;4990360;28;20077;-69
2023/06/25 07:58:22;;;;;;;6.95;5.85;;;25.60;27.70;;;;;;4972927;28;20053;-68
2023/06/25 08:00:48;;;;;;;7.07;5.75;;;25.90;14.30;;;;;;4990695;28;20382;-68
2023/06/25 08:03:15;;;;;;;6.45;5.25;;;26.10;20.40;;;;;;4989492;28;20046;-68
2023/06/25 08:05:41;;;;;;;8.30;5.35;;;26.30;12.60;;;;;;4991137;28;20038;-69
2023/06/25 08:08:08;;;;;;;7.75;5.68;;;26.40;6.60;;;;;;4972264;28;20489;-69
2023/06/25 08:10:34;;;;;;;5.93;5.32;;;26.60;6.90;;;;;;4990846;28;20046;-68
2023/06/25 08:13:01;;;;;;;7.60;5.50;;;26.80;1.00;;;;;;4975923;28;20054;-68
2023/06/25 08:15:27;;;;;;;5.95;5.10;;;27.00;1.00;;;;;;4967424;28;20089;-68
2023/06/25 08:17:54;;;;;;;7.00;4.53;;;27.30;1.00;;;;;;4989732;28;20050;-69
2023/06/25 08:20:20;;;;;;;5.80;4.50;;;27.60;3.90;;;;;;4969591;28;20398;-69
2023/06/25 08:22:47;;;;;;;5.85;5.25;;;27.80;1.00;;;;;;4987044;28;20433;-69
2023/06/25 08:25:21;;;;;;;6.88;5.38;;;27.90;1.00;;;;;;4989510;28;20046;-69
2023/06/25 08:27:47;;;;;;;6.30;4.70;;;28.10;1.00;;;;;;4990080;28;20113;-69
2023/06/25 08:30:14;;;;;;;5.18;4.53;;;28.30;1.00;;;;;;4989611;28;20378;-69
2023/06/25 08:32:41;;;;;;;5.35;4.85;;;28.40;1.00;;;;;;4990018;28;20209;-68
2023/06/25 08:35:07;;;;;;;8.18;4.80;;;28.60;1.00;;;;;;4990679;28;20507;-69
2023/06/25 08:37:34;;;;;;;7.68;4.82;;;28.60;1.00;;;;;;4988479;28;20056;-69
2023/06/25 08:40:00;;;;;;;5.18;4.68;;;28.70;1.00;;;;;;4972209;28;20099;-68
2023/06/25 08:42:28;;;;;;;4.63;4.18;;;28.90;1.00;;;;;;4990699;28;20054;-68
2023/06/25 08:44:56;;;;;;;4.15;3.75;;;28.90;1.00;;;;;;4992138;28;20065;-69
2023/06/25 08:47:25;;;;;;;6.38;3.88;;;29.00;1.00;;;;;;5008761;28;20042;-67
2023/06/25 08:49:54;;;;;;;5.97;4.63;;;29.00;1.00;;;;;;5009253;28;20045;-69
2023/06/25 08:52:21;;;;;;;4.85;4.32;;;29.10;1.00;;;;;;4989181;28;20042;-68
2023/06/25 08:54:47;;;;;;;5.65;4.03;;;29.10;1.00;;;;;;5002460;28;20041;-68
2023/06/25 08:57:13;;;;;;;6.85;3.95;;;29.20;1.00;;;;;;5010027;28;20045;-67
2023/06/25 08:59:40;;;;;;;4.88;3.97;;;29.30;1.00;;;;;;5007874;28;20125;-68
2023/06/25 09:02:06;;;;;;;6.15;3.58;;;29.30;1.00;;;;;;5009400;28;20046;-69
2023/06/25 09:04:33;;;;;;;6.10;4.45;;;29.30;1.00;;;;;;5008395;28;20105;-68
2023/06/25 09:07:07;;;;;;;4.47;3.58;;;29.30;1.00;;;;;;5009245;28;20081;-68
2023/06/25 09:09:33;;;;;;;4.13;3.72;;;29.50;1.00;;;;;;5009131;28;20500;-67
2023/06/25 09:12:00;;;;;;;4.20;3.80;;;29.50;1.00;;;;;;5006155;28;20109;-68
2023/06/25 09:14:28;;;;;;;4.20;3.78;;;29.50;1.00;;;;;;5009347;28;20034;-67
2023/06/25 09:16:56;;;;;;;4.97;3.70;;;29.60;1.00;;;;;;5007701;28;20104;-67
2023/06/25 09:19:23;;;;;;;8.13;4.15;;;29.70;1.00;;;;;;5008913;28;20574;-68
2023/06/25 09:21:49;;;;;;;4.22;3.92;;;29.80;1.00;;;;;;5007502;28;20049;-68
2023/06/25 09:24:18;;;;;;;4.13;3.22;;;29.90;1.00;;;;;;5009043;28;20053;-68
2023/06/25 09:26:48;;;;;;;4.83;4.23;;;30.00;1.00;;;;;;5009191;28;20045;-67
2023/06/25 09:29:15;;;;;;;3.58;3.28;;;30.10;1.00;;;;;;4998318;28;20332;-68
2023/06/25 09:31:43;;;;;;;3.90;3.50;;;30.00;1.00;;;;;;5009038;28;20092;-68
2023/06/25 09:34:10;;;;;;;3.65;3.35;;;29.90;1.00;;;;;;5006642;28;20433;-67
2023/06/25 09:36:37;;;;;;;5.90;3.90;;;29.70;1.00;;;;;;4991207;28;20053;-68
2023/06/25 09:39:05;;;;;;;5.32;3.60;;;29.60;1.00;;;;;;4989510;28;20488;-68
2023/06/25 09:41:37;;;;;;;3.60;3.35;;;29.70;1.00;;;;;;5009238;28;20100;-67
2023/06/25 09:44:05;;;;;;;3.53;3.15;;;29.80;1.00;;;;;;5008061;28;20050;-68
2023/06/25 09:46:37;;;;;;;3.10;2.90;;;29.90;1.00;;;;;;4990415;28;20053;-68
2023/06/25 09:49:05;;;;;;;4.68;2.80;;;29.90;1.00;;;;;;5007746;28;20512;-68
2023/06/25 09:51:42;;;;;;;3.15;2.90;;;29.90;1.00;;;;;;4989719;28;20053;-68
2023/06/25 09:54:11;;;;;;;2.85;2.65;;;29.90;1.00;;;;;;5002149;28;20324;-68
2023/06/25 09:56:41;;;;;;;3.35;2.50;;;29.90;1.00;;;;;;5003046;28;20120;-68
2023/06/25 09:59:08;;;;;;;3.13;2.83;;;29.70;1.00;;;;;;5006246;28;20127;-67
2023/06/25 10:01:37;;;;;;;4.45;3.47;;;29.80;1.00;;;;;;5007833;28;20042;-67
2023/06/25 10:04:03;;;;;;;3.20;3.00;;;29.80;1.00;;;;;;4969080;28;20124;-68
2023/06/25 10:06:32;;;;;;;4.43;2.40;;;29.90;1.00;;;;;;5002841;28;20042;-67
2023/06/25 10:08:58;;;;;;;2.85;2.65;;;30.00;1.00;;;;;;5005877;28;20393;-67
2023/06/25 10:11:25;;;;;;;3.70;3.28;;;30.00;1.00;;;;;;5007347;28;20053;-68
2023/06/25 10:13:52;;;;;;;2.97;2.78;;;30.00;1.00;;;;;;4986245;28;20581;-68
2023/06/25 10:16:19;;;;;;;3.08;2.78;;;30.00;1.00;;;;;;5007782;28;20613;-68
2023/06/25 10:18:47;;;;;;;3.88;2.58;;;29.90;1.00;;;;;;5007982;28;20050;-67
2023/06/25 10:21:27;;;;;;;2.28;2.17;;;29.90;1.00;;;;;;5006842;28;20038;-68
2023/06/25 10:24:01;;;;;;;2.65;2.42;;;29.90;1.00;;;;;;5008037;28;20428;-67
2023/06/25 10:26:35;;;;;;;2.03;1.92;;;29.90;1.00;;;;;;5003896;28;20049;-68
2023/06/25 10:29:06;;;;;;;2.60;2.40;;;29.90;1.00;;;;;;5007803;28;20108;-68
2023/06/25 10:31:44;;;;;;;2.70;2.50;;;29.90;1.00;;;;;;5007132;28;20073;-68
2023/06/25 10:34:13;;;;;;;2.60;2.40;;;29.80;1.00;;;;;;4969778;28;20080;-68
2023/06/25 10:36:50;;;;;;;2.60;2.40;;;29.80;1.00;;;;;;5007209;28;20401;-68
2023/06/25 10:39:20;;;;;;;2.83;2.47;;;29.80;1.00;;;;;;5005974;28;20193;-67
2023/06/25 10:41:48;;;;;;;2.88;2.08;;;29.70;1.00;;;;;;5008022;28;20046;-69
2023/06/25 10:44:15;;;;;;;2.40;2.08;;;29.70;1.00;;;;;;5006602;28;20054;-68
2023/06/25 10:46:42;;;;;;;2.47;2.30;;;29.70;1.00;;;;;;5007215;28;20052;-67
2023/06/25 10:49:10;;;;;;;2.33;2.22;;;29.60;1.00;;;;;;4990212;28;20120;-68
2023/06/25 10:51:37;;;;;;;2.45;2.25;;;29.60;1.00;;;;;;5006381;28;20053;-67
2023/06/25 10:54:04;;;;;;;2.38;2.28;;;29.60;1.00;;;;;;5007384;28;20073;-67
2023/06/25 10:56:33;;;;;;;5.63;2.20;;;29.60;1.00;;;;;;5005973;28;20046;-67
2023/06/25 10:58:59;;;;;;;2.30;2.20;;;29.60;1.00;;;;;;5007482;28;20057;-68
2023/06/25 11:01:33;;;;;;;3.53;2.08;;;29.70;1.00;;;;;;5006449;28;20402;-68
2023/06/25 11:04:00;;;;;;;2.85;2.28;;;29.70;1.00;;;;;;5006442;28;20669;-68
2023/06/25 11:06:26;;;;;;;2.00;1.90;;;29.70;1.00;;;;;;5006720;28;20074;-67
2023/06/25 11:08:54;;;;;;;2.20;2.10;;;29.80;1.00;;;;;;5003794;28;20596;-67
2023/06/25 11:11:22;;;;;;;2.33;2.17;;;29.70;1.00;;;;;;4993995;28;20042;-68
2023/06/25 11:13:48;;;;;;;2.10;1.90;;;29.70;1.00;;;;;;5006582;28;20512;-68
2023/06/25 11:16:15;;;;;;;1.85;1.75;;;29.70;1.00;;;;;;5007164;28;20042;-68
2023/06/25 11:18:43;;;;;;;2.40;2.20;;;29.60;1.00;;;;;;4997677;28;20574;-68
2023/06/25 11:21:10;;;;;;;2.58;2.38;;;29.70;1.00;;;;;;5006743;28;20062;-68
2023/06/25 11:23:36;;;;;;;2.25;2.08;;;29.70;1.00;;;;;;5007682;28;20499;-67
2023/06/25 11:26:03;;;;;;;2.00;1.90;;;29.70;1.00;;;;;;5003155;28;20042;-68
2023/06/25 11:28:29;;;;;;;2.10;1.92;;;29.80;1.00;;;;;;5007729;28;20081;-68
2023/06/25 11:30:59;;;;;;;2.45;1.80;;;29.70;1.00;;;;;;5005405;28;20046;-68
2023/06/25 11:33:27;;;;;;;2.13;1.92;;;29.70;1.00;;;;;;5005346;28;20038;-67
2023/06/25 11:36:09;;;;;;;2.25;2.15;;;29.70;1.00;;;;;;5003326;28;20084;-68
2023/06/25 11:38:36;;;;;;;2.30;2.10;;;29.60;1.00;;;;;;4993717;28;20459;-68
2023/06/25 11:41:05;;;;;;;2.53;2.33;;;29.60;1.00;;;;;;5007595;28;20050;-68
2023/06/25 11:43:33;;;;;;;3.38;2.10;;;29.50;1.00;;;;;;5005680;28;20100;-67
2023/06/25 11:46:02;;;;;;;2.13;2.03;;;29.50;1.00;;;;;;5007577;28;20050;-68
2023/06/25 11:48:29;;;;;;;2.20;2.00;;;29.40;1.00;;;;;;4987881;28;20042;-68
2023/06/25 11:51:04;;;;;;;2.10;2.00;;;29.40;1.00;;;;;;5007801;28;20050;-68
2023/06/25 11:53:32;;;;;;;1.75;1.67;;;29.40;1.00;;;;;;5006847;28;20404;-68
2023/06/25 11:56:00;;;;;;;4.10;1.75;;;29.40;1.00;;;;;;4988447;28;20132;-69
2023/06/25 11:58:26;;;;;;;1.70;1.63;;;29.50;1.00;;;;;;5006663;28;20057;-68
2023/06/25 12:00:53;;;;;;;1.92;1.83;;;29.60;1.00;;;;;;5005673;28;20034;-69
2023/06/25 12:03:20;;;;;;;1.75;1.65;;;29.50;1.00;;;;;;5003654;28;20077;-67
2023/06/25 12:05:46;;;;;;;1.85;1.75;;;29.60;1.00;;;;;;5005457;28;20042;-69
2023/06/25 12:08:13;;;;;;;1.95;1.80;;;29.60;1.00;;;;;;5006459;28;20042;-68
2023/06/25 12:10:41;;;;;;;2.42;1.70;;;29.50;1.00;;;;;;5006006;28;20433;-69
2023/06/25 12:13:07;;;;;;;1.98;1.77;;;29.40;1.00;;;;;;5006442;28;20038;-68
2023/06/25 12:15:35;;;;;;;2.63;1.57;;;29.50;1.00;;;;;;5011405;28;20049;-67
2023/06/25 12:18:01;;;;;;;1.60;1.50;;;29.60;1.00;;;;;;5008602;28;20156;-68
2023/06/25 12:20:28;;;;;;;2.25;1.65;;;29.70;1.00;;;;;;5001796;28;20408;-68
2023/06/25 12:22:54;;;;;;;1.55;1.45;;;29.80;1.00;;;;;;5008844;28;20443;-68
2023/06/25 12:25:21;;;;;;;1.50;1.40;;;29.80;1.00;;;;;;5007286;28;20438;-68
2023/06/25 12:27:48;;;;;;;1.65;1.50;;;29.80;1.00;;;;;;5005606;28;20502;-68
2023/06/25 12:30:14;;;;;;;4.00;1.58;;;29.70;1.00;;;;;;4991872;28;20046;-69
2023/06/25 12:32:40;;;;;;;1.50;1.40;;;29.70;1.00;;;;;;5009300;28;20049;-68
2023/06/25 12:35:09;;;;;;;1.80;1.70;;;29.60;1.00;;;;;;4994862;28;20045;-68
2023/06/25 12:37:35;;;;;;;2.88;1.58;;;29.60;1.00;;;;;;4989413;28;20129;-69
2023/06/25 12:40:03;;;;;;;1.52;1.42;;;29.50;1.00;;;;;;5006684;28;20037;-68
2023/06/25 12:42:30;;;;;;;4.22;1.55;;;29.50;1.00;;;;;;5009789;28;20410;-68
2023/06/25 12:44:57;;;;;;;1.95;1.63;;;29.50;1.00;;;;;;5008503;28;20044;-68
2023/06/25 12:47:24;;;;;;;1.58;1.48;;;29.50;1.00;;;;;;5009101;28;20081;-68
2023/06/25 12:49:50;;;;;;;1.67;1.58;;;29.60;1.00;;;;;;5009991;28;20469;-68
2023/06/25 12:52:17;;;;;;;1.35;1.25;;;29.60;1.00;;;;;;5008037;28;20380;-68